Time;durP1;ratioP1;P1;durP2;ratioP2;P2;SDS_P1;SDS_P2;PMS_P1;PMS_P2;Temp;Humidity;BMP_temperature;BMP_pressure;BME280_temperature;BME280_humidity;BME280_pressure;Samples;Min_cycle;Max_cycle;Signal;HPM_P1;HPM_P2
2023/12/30 00:01:59;;;;;;;0.90;0.90;;;17.30;68.60;;;;;;5054640;28;43465;-71
2023/12/30 00:04:27;;;;;;;0.67;0.67;;;17.20;68.50;;;;;;5053344;28;44046;-71
2023/12/30 00:06:55;;;;;;;1.00;1.00;;;17.20;68.60;;;;;;5054239;28;43791;-72
2023/12/30 00:09:23;;;;;;;0.90;0.90;;;17.20;68.70;;;;;;5054195;28;43682;-71
2023/12/30 00:11:51;;;;;;;0.90;0.90;;;17.20;68.70;;;;;;5049905;28;43454;-71
2023/12/30 00:14:20;;;;;;;0.80;0.80;;;17.20;68.80;;;;;;5057502;28;43414;-71
2023/12/30 00:16:48;;;;;;;0.70;0.70;;;17.20;68.80;;;;;;5051994;28;43440;-72
2023/12/30 00:19:17;;;;;;;0.90;0.90;;;17.30;68.80;;;;;;5057493;28;43617;-72
2023/12/30 00:21:45;;;;;;;0.80;0.80;;;17.30;68.40;;;;;;5055668;28;43464;-71
2023/12/30 00:24:13;;;;;;;0.80;0.80;;;17.30;68.20;;;;;;5050615;28;43423;-71
2023/12/30 00:26:41;;;;;;;0.70;0.70;;;17.30;68.20;;;;;;5052963;28;43491;-71
2023/12/30 00:29:12;;;;;;;0.80;0.80;;;17.30;68.40;;;;;;5050595;28;43614;-71
2023/12/30 00:31:42;;;;;;;1.10;1.10;;;17.30;68.50;;;;;;5053409;28;45299;-71
2023/12/30 00:34:10;;;;;;;0.70;0.70;;;17.30;68.40;;;;;;5058487;28;44009;-71
2023/12/30 00:36:42;;;;;;;0.77;0.77;;;17.30;68.50;;;;;;5053522;28;43443;-71
2023/12/30 00:39:10;;;;;;;0.80;0.80;;;17.30;68.60;;;;;;5050558;28;44940;-71
2023/12/30 00:41:38;;;;;;;0.87;0.87;;;17.20;68.60;;;;;;5055141;28;43980;-71
2023/12/30 00:44:06;;;;;;;0.90;0.90;;;17.20;68.70;;;;;;5061631;28;43379;-71
2023/12/30 00:46:34;;;;;;;0.80;0.80;;;17.20;68.70;;;;;;5056103;28;43549;-71
2023/12/30 00:49:03;;;;;;;0.90;0.90;;;17.20;68.70;;;;;;5053119;28;45669;-71
2023/12/30 00:51:31;;;;;;;0.80;0.80;;;17.30;68.60;;;;;;5050646;28;44684;-71
2023/12/30 00:53:59;;;;;;;0.90;0.90;;;17.40;68.40;;;;;;5051969;28;43388;-71
2023/12/30 00:56:27;;;;;;;0.80;0.80;;;17.30;68.20;;;;;;5053008;28;43310;-71
2023/12/30 00:58:55;;;;;;;0.93;0.93;;;17.30;68.30;;;;;;5048991;28;45828;-71
2023/12/30 01:01:24;;;;;;;0.70;0.70;;;17.30;68.40;;;;;;5056784;28;43439;-71
2023/12/30 01:03:52;;;;;;;0.80;0.80;;;17.30;68.50;;;;;;5055664;28;43484;-71
2023/12/30 01:06:21;;;;;;;0.80;0.80;;;17.30;68.40;;;;;;5048036;28;43465;-72
2023/12/30 01:08:49;;;;;;;0.80;0.80;;;17.30;68.60;;;;;;5050697;28;45804;-71
2023/12/30 01:11:17;;;;;;;0.80;0.80;;;17.30;68.60;;;;;;5048880;28;44783;-72
2023/12/30 01:13:45;;;;;;;0.90;0.90;;;17.20;68.60;;;;;;5054579;28;44084;-72
2023/12/30 01:16:15;;;;;;;0.70;0.70;;;17.20;68.70;;;;;;5052817;28;43428;-72
2023/12/30 01:18:43;;;;;;;1.20;1.20;;;17.20;68.70;;;;;;5056493;28;46163;-72
2023/12/30 01:21:12;;;;;;;0.80;0.80;;;17.30;68.70;;;;;;5057328;28;44961;-72
2023/12/30 01:23:41;;;;;;;0.73;0.73;;;17.30;68.30;;;;;;5061680;28;43399;-72
2023/12/30 01:26:09;;;;;;;0.80;0.80;;;17.30;69.00;;;;;;5061471;28;43438;-72
2023/12/30 01:28:37;;;;;;;0.90;0.90;;;17.30;68.30;;;;;;5052468;28;46162;-72
2023/12/30 01:31:05;;;;;;;0.90;0.90;;;17.30;68.40;;;;;;5064308;28;43436;-72
2023/12/30 01:33:34;;;;;;;0.90;0.90;;;17.30;68.60;;;;;;5054122;28;43386;-72
2023/12/30 01:36:02;;;;;;;0.90;0.90;;;17.30;68.50;;;;;;5056104;28;43468;-72
2023/12/30 01:38:30;;;;;;;0.90;0.90;;;17.30;68.40;;;;;;5056357;28;43766;-72
2023/12/30 01:40:59;;;;;;;0.70;0.70;;;17.30;68.60;;;;;;5058682;28;44691;-72
2023/12/30 01:43:28;;;;;;;0.90;0.90;;;17.20;68.60;;;;;;5061731;28;43502;-72
2023/12/30 01:45:58;;;;;;;1.00;1.00;;;17.20;68.70;;;;;;5052768;28;43432;-71
2023/12/30 01:48:26;;;;;;;1.00;1.00;;;17.20;68.70;;;;;;5055820;28;46092;-72
2023/12/30 01:50:54;;;;;;;0.63;0.63;;;17.20;68.70;;;;;;5053732;28;44964;-72
2023/12/30 01:53:22;;;;;;;0.90;0.90;;;17.30;68.60;;;;;;5059307;28;43821;-72
2023/12/30 01:55:51;;;;;;;0.80;0.80;;;17.30;68.30;;;;;;5058330;28;44000;-72
2023/12/30 01:58:21;;;;;;;0.90;0.90;;;17.30;68.10;;;;;;5062402;28;45676;-72
2023/12/30 02:00:49;;;;;;;0.90;0.90;;;17.30;68.30;;;;;;5060439;28;44437;-72
2023/12/30 02:03:17;;;;;;;0.80;0.80;;;17.30;68.40;;;;;;5055356;28;43533;-72
2023/12/30 02:05:47;;;;;;;0.80;0.80;;;17.30;68.40;;;;;;5056302;28;43534;-71
2023/12/30 02:08:15;;;;;;;0.90;0.90;;;17.30;68.40;;;;;;5058760;28;43851;-72
2023/12/30 02:10:43;;;;;;;1.00;1.00;;;17.30;68.50;;;;;;5060353;28;44867;-72
2023/12/30 02:13:11;;;;;;;0.73;0.73;;;17.30;68.60;;;;;;5053038;28;43430;-72
2023/12/30 02:15:41;;;;;;;0.90;0.90;;;17.20;68.60;;;;;;5057103;28;43466;-71
2023/12/30 02:18:10;;;;;;;1.13;1.13;;;17.20;68.70;;;;;;5052555;28;46221;-72
2023/12/30 02:20:38;;;;;;;0.67;0.67;;;17.20;68.70;;;;;;5054831;28;45049;-72
2023/12/30 02:23:07;;;;;;;0.70;0.70;;;17.20;68.60;;;;;;5051784;28;43527;-72
2023/12/30 02:25:37;;;;;;;0.80;0.80;;;17.20;69.40;;;;;;5054341;28;43926;-72
2023/12/30 02:28:06;;;;;;;0.80;0.80;;;17.20;68.70;;;;;;5071317;28;46121;-72
2023/12/30 02:30:35;;;;;;;0.83;0.83;;;17.20;68.80;;;;;;5052194;28;44762;-72
2023/12/30 02:33:03;;;;;;;0.70;0.70;;;17.20;68.90;;;;;;5053663;28;43989;-72
2023/12/30 02:35:32;;;;;;;0.73;0.73;;;17.20;68.90;;;;;;5056071;28;43433;-72
2023/12/30 02:38:00;;;;;;;0.80;0.80;;;17.20;68.70;;;;;;5055909;28;46113;-72
2023/12/30 02:40:29;;;;;;;1.40;0.80;;;17.30;68.50;;;;;;5049154;28;44361;-72
2023/12/30 02:42:58;;;;;;;0.90;0.90;;;17.40;68.10;;;;;;5058887;28;43480;-72
2023/12/30 02:45:26;;;;;;;0.90;0.90;;;17.50;67.90;;;;;;5057781;28;43985;-72
2023/12/30 02:47:54;;;;;;;1.30;1.00;;;17.40;67.80;;;;;;5056025;28;45987;-72
2023/12/30 02:50:22;;;;;;;0.97;0.97;;;17.40;68.00;;;;;;5054194;28;43434;-72
2023/12/30 02:52:52;;;;;;;0.80;0.80;;;17.40;68.10;;;;;;5050138;28;43390;-72
2023/12/30 02:55:20;;;;;;;0.90;0.90;;;17.40;68.00;;;;;;5063223;28;43514;-72
2023/12/30 02:57:49;;;;;;;0.87;0.87;;;17.40;68.20;;;;;;5060822;28;44204;-71
2023/12/30 03:00:18;;;;;;;0.70;0.70;;;17.40;68.40;;;;;;5056413;28;43636;-72
2023/12/30 03:02:47;;;;;;;0.80;0.80;;;17.30;68.40;;;;;;5053451;28;43456;-72
2023/12/30 03:05:15;;;;;;;0.83;0.83;;;17.30;68.60;;;;;;5059140;28;43620;-72
2023/12/30 03:07:43;;;;;;;1.07;1.07;;;17.20;68.50;;;;;;5052873;28;45616;-72
2023/12/30 03:10:12;;;;;;;0.80;0.80;;;17.20;68.50;;;;;;5059136;28;44339;-72
2023/12/30 03:12:41;;;;;;;1.00;1.00;;;17.30;68.70;;;;;;5057950;28;43415;-72
2023/12/30 03:15:11;;;;;;;0.90;0.90;;;17.20;68.70;;;;;;5057326;28;43436;-72
2023/12/30 03:17:39;;;;;;;0.80;0.80;;;17.20;68.70;;;;;;5059527;28;43606;-72
2023/12/30 03:20:10;;;;;;;0.93;0.93;;;17.20;68.80;;;;;;5053382;28;43452;-72
2023/12/30 03:22:38;;;;;;;1.00;1.00;;;17.20;68.80;;;;;;5057022;28;43426;-72
2023/12/30 03:25:07;;;;;;;0.80;0.80;;;17.20;68.60;;;;;;5058534;28;43546;-70
2023/12/30 03:27:37;;;;;;;0.90;0.90;;;17.30;68.30;;;;;;5071236;28;43944;-70
2023/12/30 03:30:06;;;;;;;0.67;0.67;;;17.30;68.20;;;;;;5075684;28;43463;-70
2023/12/30 03:32:36;;;;;;;0.90;0.90;;;17.30;68.30;;;;;;5074101;28;43898;-70
2023/12/30 03:35:05;;;;;;;0.90;0.90;;;17.30;68.40;;;;;;5069854;28;43522;-70
2023/12/30 03:37:33;;;;;;;0.80;0.80;;;17.20;68.40;;;;;;5078490;28;44104;-70
2023/12/30 03:40:01;;;;;;;0.90;0.90;;;17.20;68.30;;;;;;5071987;28;45140;-70
2023/12/30 03:42:29;;;;;;;1.17;1.07;;;17.30;68.50;;;;;;5080569;28;43789;-70
2023/12/30 03:44:58;;;;;;;0.90;0.90;;;17.20;68.60;;;;;;5081693;28;43530;-70
2023/12/30 03:47:26;;;;;;;0.93;0.93;;;17.20;68.60;;;;;;5075899;28;45652;-70
2023/12/30 03:49:55;;;;;;;0.90;0.90;;;17.20;68.70;;;;;;5072991;28;43922;-70
2023/12/30 03:52:23;;;;;;;0.90;0.90;;;17.20;68.80;;;;;;5068212;28;43387;-70
2023/12/30 03:54:53;;;;;;;0.90;0.90;;;17.20;68.70;;;;;;5070357;28;43554;-70
2023/12/30 03:57:23;;;;;;;0.97;0.97;;;17.30;68.70;;;;;;5073527;28;45659;-70
2023/12/30 03:59:51;;;;;;;0.90;0.90;;;17.30;68.30;;;;;;5078209;28;44571;-70
2023/12/30 04:02:21;;;;;;;0.83;0.83;;;17.30;68.20;;;;;;5079091;28;43440;-70
2023/12/30 04:04:49;;;;;;;0.90;0.90;;;17.30;68.40;;;;;;5072836;28;43413;-70
2023/12/30 04:07:18;;;;;;;0.80;0.80;;;17.20;68.40;;;;;;5079130;28;45432;-70
2023/12/30 04:09:46;;;;;;;0.83;0.83;;;17.20;68.40;;;;;;5083443;28;43615;-70
2023/12/30 04:12:15;;;;;;;0.93;0.93;;;17.20;68.30;;;;;;5076620;28;43458;-70
2023/12/30 04:14:43;;;;;;;0.87;0.87;;;17.20;68.50;;;;;;5076663;28;43432;-70
2023/12/30 04:17:12;;;;;;;0.90;0.90;;;17.20;68.60;;;;;;5068211;28;45631;-70
2023/12/30 04:19:40;;;;;;;0.90;0.90;;;17.20;68.70;;;;;;5070405;28;44994;-70
2023/12/30 04:22:08;;;;;;;1.00;1.00;;;17.20;68.80;;;;;;5073181;28;43454;-70
2023/12/30 04:24:37;;;;;;;0.80;0.80;;;17.20;68.80;;;;;;5074660;28;43490;-70
2023/12/30 04:27:05;;;;;;;0.90;0.90;;;17.20;68.70;;;;;;5066565;28;46023;-70
2023/12/30 04:29:33;;;;;;;0.90;0.90;;;17.20;68.70;;;;;;5074234;28;44679;-70
2023/12/30 04:32:01;;;;;;;0.87;0.87;;;17.20;68.70;;;;;;5068878;28;43435;-70
2023/12/30 04:34:29;;;;;;;0.80;0.80;;;17.20;68.80;;;;;;5071854;28;43332;-70
2023/12/30 04:36:59;;;;;;;0.90;0.90;;;17.20;68.90;;;;;;5078246;28;46001;-70
2023/12/30 04:39:27;;;;;;;0.83;0.83;;;17.20;68.90;;;;;;5070888;28;43407;-70
2023/12/30 04:42:00;;;;;;;0.80;0.80;;;17.20;68.90;;;;;;5074648;28;43486;-70
2023/12/30 04:44:33;;;;;;;0.90;0.90;;;17.20;68.70;;;;;;5078101;28;43479;-71
2023/12/30 04:47:01;;;;;;;0.80;0.80;;;17.30;68.50;;;;;;5075712;28;45466;-70
2023/12/30 04:49:29;;;;;;;0.90;0.90;;;17.40;68.10;;;;;;5070569;28;44900;-70
2023/12/30 04:51:57;;;;;;;0.83;0.83;;;17.50;68.10;;;;;;5072268;28;43684;-70
2023/12/30 04:54:26;;;;;;;0.90;0.90;;;17.40;68.10;;;;;;5070440;28;43412;-70
2023/12/30 04:56:54;;;;;;;0.90;0.90;;;17.40;68.20;;;;;;5076439;28;44305;-70
2023/12/30 04:59:23;;;;;;;0.90;0.90;;;17.40;68.20;;;;;;5071857;28;44626;-70
2023/12/30 05:01:52;;;;;;;0.93;0.77;;;17.40;68.20;;;;;;5070569;28;43400;-70
2023/12/30 05:04:20;;;;;;;0.90;0.90;;;17.40;68.40;;;;;;5069617;28;44156;-70
2023/12/30 05:06:48;;;;;;;0.80;0.80;;;17.40;68.50;;;;;;5078533;28;46117;-70
2023/12/30 05:09:20;;;;;;;0.80;0.80;;;17.30;68.50;;;;;;5075578;28;44903;-70
2023/12/30 05:11:49;;;;;;;1.00;1.00;;;17.30;68.60;;;;;;5079645;28;44077;-70
2023/12/30 05:14:18;;;;;;;0.80;0.80;;;17.30;68.60;;;;;;5071767;28;43332;-70
2023/12/30 05:16:47;;;;;;;1.00;1.00;;;17.30;68.60;;;;;;5073067;28;43907;-70
2023/12/30 05:19:15;;;;;;;0.87;0.87;;;17.30;68.70;;;;;;5072408;28;43455;-70
2023/12/30 05:21:44;;;;;;;0.80;0.80;;;17.30;68.70;;;;;;5071320;28;43434;-70
2023/12/30 05:24:12;;;;;;;0.90;0.90;;;17.30;68.90;;;;;;5071793;28;43434;-70
2023/12/30 05:26:40;;;;;;;0.67;0.67;;;17.20;68.80;;;;;;5070423;28;43611;-70
2023/12/30 05:29:08;;;;;;;0.90;0.90;;;17.20;68.70;;;;;;5075319;28;43352;-70
2023/12/30 05:31:36;;;;;;;1.03;1.03;;;17.30;68.70;;;;;;5070345;28;43469;-70
2023/12/30 05:34:06;;;;;;;0.90;0.90;;;17.40;68.40;;;;;;5074611;28;43510;-70
2023/12/30 05:36:37;;;;;;;0.93;0.93;;;17.50;68.00;;;;;;5073674;28;43837;-70
2023/12/30 05:39:05;;;;;;;0.80;0.80;;;17.50;67.80;;;;;;5071168;28;43451;-70
2023/12/30 05:41:33;;;;;;;0.80;0.80;;;17.50;68.00;;;;;;5074683;28;43357;-70
2023/12/30 05:44:01;;;;;;;0.90;0.90;;;17.40;68.00;;;;;;5081221;28;43367;-70
2023/12/30 05:46:30;;;;;;;0.90;0.90;;;17.40;68.00;;;;;;5059263;28;45690;-72
2023/12/30 05:49:01;;;;;;;0.90;0.90;;;17.40;68.10;;;;;;5051482;28;43394;-72
2023/12/30 05:51:30;;;;;;;0.77;0.77;;;17.40;68.20;;;;;;5048547;28;43495;-72
2023/12/30 05:53:58;;;;;;;0.80;0.80;;;17.40;68.40;;;;;;5057130;28;43368;-72
2023/12/30 05:56:27;;;;;;;0.93;0.93;;;17.30;68.40;;;;;;5055281;28;43642;-72
2023/12/30 05:58:55;;;;;;;0.70;0.70;;;17.30;68.50;;;;;;5054343;28;43462;-72
2023/12/30 06:01:23;;;;;;;1.00;1.00;;;17.30;68.50;;;;;;5053334;28;43507;-72
2023/12/30 06:03:51;;;;;;;0.90;0.90;;;17.30;68.50;;;;;;5058862;28;43958;-72
2023/12/30 06:06:20;;;;;;;1.10;1.10;;;17.30;68.70;;;;;;5066174;28;44213;-72
2023/12/30 06:08:49;;;;;;;1.00;1.00;;;17.30;68.70;;;;;;5064722;28;43909;-72
2023/12/30 06:11:17;;;;;;;0.80;0.80;;;17.30;68.80;;;;;;5063159;27;43960;-72
2023/12/30 06:13:46;;;;;;;0.80;0.80;;;17.20;68.70;;;;;;5061519;28;43339;-72
2023/12/30 06:16:14;;;;;;;1.00;1.00;;;17.30;69.50;;;;;;5060121;28;44212;-72
2023/12/30 06:18:42;;;;;;;0.90;0.90;;;17.30;68.70;;;;;;5058261;28;43462;-72
2023/12/30 06:21:10;;;;;;;0.80;0.80;;;17.40;69.10;;;;;;5059216;28;43505;-72
2023/12/30 06:23:38;;;;;;;0.80;0.80;;;17.40;68.30;;;;;;5056011;28;43456;-72
2023/12/30 06:26:07;;;;;;;0.70;0.70;;;17.40;68.30;;;;;;5060934;28;43945;-72
2023/12/30 06:28:36;;;;;;;1.27;1.23;;;17.40;68.40;;;;;;5056952;28;43479;-72
2023/12/30 06:31:04;;;;;;;3.67;1.23;;;17.40;68.50;;;;;;5054565;28;43414;-72
2023/12/30 06:33:32;;;;;;;1.63;1.53;;;17.30;68.30;;;;;;5057514;28;43310;-72
2023/12/30 06:36:01;;;;;;;1.50;1.40;;;17.30;68.30;;;;;;5051520;28;43620;-72
2023/12/30 06:38:29;;;;;;;1.43;1.33;;;17.30;68.40;;;;;;5058343;28;44115;-72
2023/12/30 06:40:57;;;;;;;1.67;1.57;;;17.40;68.60;;;;;;5055236;28;43410;-72
2023/12/30 06:43:26;;;;;;;5.47;2.37;;;17.30;68.70;;;;;;5060941;28;43500;-72
2023/12/30 06:45:54;;;;;;;4.80;2.60;;;17.30;68.70;;;;;;5053571;28;43941;-72
2023/12/30 06:48:21;;;;;;;5.10;2.70;;;17.30;68.70;;;;;;5058023;28;43359;-72
2023/12/30 06:50:50;;;;;;;4.20;2.30;;;17.30;68.40;;;;;;5050977;28;43513;-72
2023/12/30 06:53:18;;;;;;;3.13;2.27;;;17.40;68.90;;;;;;5056933;28;43367;-72
2023/12/30 06:55:46;;;;;;;2.90;2.20;;;17.40;68.20;;;;;;5060756;28;43579;-72
2023/12/30 06:58:15;;;;;;;2.93;2.57;;;17.40;68.30;;;;;;5049358;28;45039;-71
2023/12/30 07:00:45;;;;;;;4.60;2.67;;;17.30;68.30;;;;;;5060938;28;43454;-71
2023/12/30 07:03:13;;;;;;;3.97;2.40;;;17.40;68.50;;;;;;5057524;28;43371;-72
2023/12/30 07:05:41;;;;;;;4.27;2.60;;;17.40;68.40;;;;;;5059775;28;43909;-72
2023/12/30 07:08:09;;;;;;;2.47;2.27;;;17.30;68.40;;;;;;5050215;28;43336;-72
2023/12/30 07:10:37;;;;;;;2.80;2.57;;;17.30;68.50;;;;;;5061809;28;43356;-72
2023/12/30 07:13:06;;;;;;;3.07;2.40;;;17.30;68.60;;;;;;5056048;28;43423;-72
2023/12/30 07:15:35;;;;;;;4.93;2.70;;;17.30;68.70;;;;;;5057474;28;43833;-72
2023/12/30 07:18:05;;;;;;;4.97;2.90;;;17.20;68.70;;;;;;5053987;28;43744;-72
2023/12/30 07:20:34;;;;;;;4.03;3.20;;;17.20;69.30;;;;;;5055063;28;43466;-72
2023/12/30 07:23:04;;;;;;;4.07;2.60;;;17.20;68.70;;;;;;5058679;28;43823;-72
2023/12/30 07:25:32;;;;;;;3.50;2.67;;;17.30;68.80;;;;;;5054183;28;43987;-72
2023/12/30 07:28:00;;;;;;;4.27;2.60;;;17.30;68.80;;;;;;5054492;28;43959;-72
2023/12/30 07:30:29;;;;;;;4.17;3.17;;;17.20;68.80;;;;;;5051564;28;43494;-72
2023/12/30 07:32:57;;;;;;;4.23;2.97;;;17.20;68.90;;;;;;5052479;28;43457;-72
2023/12/30 07:35:27;;;;;;;4.60;3.00;;;17.30;68.90;;;;;;5058545;28;43854;-72
2023/12/30 07:37:55;;;;;;;4.57;3.27;;;17.30;68.50;;;;;;5054663;28;43456;-72
2023/12/30 07:40:23;;;;;;;4.57;3.20;;;17.40;68.20;;;;;;5048774;28;43477;-72
2023/12/30 07:42:52;;;;;;;4.33;3.10;;;17.50;68.00;;;;;;5054476;28;43385;-72
2023/12/30 07:45:22;;;;;;;3.77;2.93;;;17.50;68.00;;;;;;5056721;28;44062;-72
2023/12/30 07:47:50;;;;;;;2.90;2.70;;;17.40;68.10;;;;;;5050955;28;43585;-72
2023/12/30 07:50:18;;;;;;;5.03;3.10;;;17.40;68.20;;;;;;5061312;28;43392;-72
2023/12/30 07:52:47;;;;;;;3.87;2.80;;;17.40;68.20;;;;;;5055281;28;43583;-72
2023/12/30 07:55:16;;;;;;;3.33;3.03;;;17.40;68.30;;;;;;5057176;28;43863;-72
2023/12/30 07:57:44;;;;;;;3.63;2.63;;;17.40;68.50;;;;;;5056223;28;43367;-72
2023/12/30 08:00:13;;;;;;;3.53;2.60;;;17.30;68.50;;;;;;5052091;28;43430;-72
2023/12/30 08:02:41;;;;;;;5.93;3.30;;;17.30;68.60;;;;;;5050486;28;43469;-72
2023/12/30 08:05:09;;;;;;;2.80;2.60;;;17.30;69.50;;;;;;5058929;28;43585;-70
2023/12/30 08:07:37;;;;;;;3.73;2.60;;;17.30;68.70;;;;;;5078093;28;43453;-68
2023/12/30 08:10:08;;;;;;;3.73;2.80;;;17.30;68.70;;;;;;5079711;28;43442;-68
2023/12/30 08:12:36;;;;;;;4.03;3.00;;;17.30;68.80;;;;;;5079869;28;43484;-70
2023/12/30 08:15:05;;;;;;;3.00;2.70;;;17.20;68.80;;;;;;5080889;28;43916;-68
2023/12/30 08:17:33;;;;;;;3.77;2.83;;;17.30;69.00;;;;;;5078412;28;43314;-68
2023/12/30 08:20:02;;;;;;;2.80;2.60;;;17.20;69.00;;;;;;5075560;28;43491;-68
2023/12/30 08:22:30;;;;;;;2.70;2.50;;;17.20;68.80;;;;;;5074275;28;43599;-68
2023/12/30 08:24:58;;;;;;;3.20;2.90;;;17.20;68.80;;;;;;5075217;28;43611;-69
2023/12/30 08:27:28;;;;;;;3.43;3.13;;;17.30;69.00;;;;;;5076315;28;43379;-69
2023/12/30 08:29:56;;;;;;;2.83;2.50;;;17.20;68.90;;;;;;5078185;28;43372;-70
2023/12/30 08:32:24;;;;;;;5.43;2.90;;;17.20;69.00;;;;;;5080365;28;43463;-69
2023/12/30 08:34:54;;;;;;;3.87;2.83;;;17.20;69.00;;;;;;5089122;28;44044;-70
2023/12/30 08:37:22;;;;;;;4.67;3.23;;;17.20;69.00;;;;;;5093927;28;43419;-68
2023/12/30 08:39:49;;;;;;;5.07;2.73;;;17.30;68.90;;;;;;5087548;28;43371;-69
2023/12/30 08:42:17;;;;;;;3.23;2.60;;;17.40;68.50;;;;;;5081546;27;43443;-68
2023/12/30 08:44:46;;;;;;;3.90;3.13;;;17.50;68.20;;;;;;5082707;28;43845;-68
2023/12/30 08:47:15;;;;;;;6.63;3.27;;;17.50;68.00;;;;;;5076486;28;44733;-68
2023/12/30 08:49:44;;;;;;;3.73;3.20;;;17.50;68.10;;;;;;5073687;28;43466;-68
2023/12/30 08:52:12;;;;;;;7.33;3.57;;;17.50;68.50;;;;;;5074826;28;43515;-68
2023/12/30 08:54:40;;;;;;;5.80;3.53;;;17.40;68.40;;;;;;5075197;28;46159;-68
2023/12/30 08:57:08;;;;;;;4.53;2.80;;;17.40;69.00;;;;;;5078968;28;44800;-68
2023/12/30 08:59:36;;;;;;;3.43;3.00;;;17.40;68.50;;;;;;5090450;28;43303;-68
2023/12/30 09:02:06;;;;;;;4.60;3.10;;;17.40;68.60;;;;;;5077364;28;43433;-68
2023/12/30 09:04:34;;;;;;;6.80;3.50;;;17.30;68.70;;;;;;5074167;28;44022;-68
2023/12/30 09:07:02;;;;;;;4.37;3.50;;;17.30;68.80;;;;;;5070207;28;44738;-68
2023/12/30 09:09:30;;;;;;;5.20;3.60;;;17.30;68.80;;;;;;5076257;28;43431;-68
2023/12/30 09:11:58;;;;;;;5.33;3.10;;;17.30;68.80;;;;;;5074615;28;43463;-69
2023/12/30 09:14:26;;;;;;;3.07;2.73;;;17.30;69.00;;;;;;5076397;28;45586;-68
2023/12/30 09:16:54;;;;;;;4.10;3.10;;;17.20;68.90;;;;;;5069119;28;43407;-68
2023/12/30 09:19:23;;;;;;;6.30;3.17;;;17.20;69.00;;;;;;5072918;28;43503;-70
2023/12/30 09:21:52;;;;;;;5.53;3.13;;;17.30;69.20;;;;;;5075474;28;43356;-67
2023/12/30 09:24:20;;;;;;;4.27;3.27;;;17.20;69.10;;;;;;5076288;28;43919;-68
2023/12/30 09:26:48;;;;;;;4.57;3.27;;;17.40;69.00;;;;;;5074903;28;43447;-68
2023/12/30 09:29:17;;;;;;;6.03;3.37;;;17.40;68.60;;;;;;5076684;28;43377;-68
2023/12/30 09:31:45;;;;;;;3.77;3.13;;;17.40;68.50;;;;;;5077116;28;43699;-69
2023/12/30 09:34:13;;;;;;;3.77;3.10;;;17.40;68.60;;;;;;5080063;28;43606;-69
2023/12/30 09:36:54;;;;;;;5.20;3.10;;;17.40;68.80;;;;;;5084996;28;43399;-70
2023/12/30 09:39:22;;;;;;;4.90;3.50;;;17.30;68.90;;;;;;5078835;28;43454;-69
2023/12/30 09:41:50;;;;;;;3.00;2.70;;;17.30;68.80;;;;;;5081531;28;43516;-68
2023/12/30 09:44:18;;;;;;;5.30;3.20;;;17.40;68.90;;;;;;5079534;28;43603;-70
2023/12/30 09:46:46;;;;;;;3.73;2.97;;;17.30;68.90;;;;;;5083499;28;43414;-69
2023/12/30 09:49:14;;;;;;;3.97;2.70;;;17.30;69.00;;;;;;5080749;28;43752;-69
2023/12/30 09:51:42;;;;;;;4.07;3.13;;;17.30;69.00;;;;;;5083449;28;43412;-69
2023/12/30 09:54:12;;;;;;;4.73;3.13;;;17.30;69.30;;;;;;5083544;28;44000;-69
2023/12/30 09:56:40;;;;;;;4.20;2.70;;;17.30;69.10;;;;;;5082819;28;43427;-69
2023/12/30 09:59:08;;;;;;;3.90;3.00;;;17.30;69.10;;;;;;5076441;28;43402;-69
2023/12/30 10:01:37;;;;;;;3.40;3.10;;;17.30;69.00;;;;;;5081132;28;43614;-69
2023/12/30 10:04:07;;;;;;;3.87;3.00;;;17.30;69.00;;;;;;5081889;28;43631;-69
2023/12/30 10:06:36;;;;;;;3.23;2.67;;;17.30;69.80;;;;;;5084352;28;43343;-70
2023/12/30 10:09:04;;;;;;;3.50;2.80;;;17.20;69.10;;;;;;5084767;28;43403;-69
2023/12/30 10:11:33;;;;;;;4.37;2.90;;;17.30;69.10;;;;;;5077925;28;43522;-68
2023/12/30 10:14:02;;;;;;;2.90;2.70;;;17.40;68.80;;;;;;5085974;28;43676;-68
2023/12/30 10:16:30;;;;;;;3.80;3.07;;;17.50;68.60;;;;;;5076959;28;44884;-70
2023/12/30 10:18:58;;;;;;;2.70;2.47;;;17.50;69.00;;;;;;5077547;28;43387;-67
2023/12/30 10:21:26;;;;;;;3.70;2.87;;;17.50;68.30;;;;;;5082445;28;43370;-68
2023/12/30 10:23:58;;;;;;;2.80;2.60;;;17.50;68.50;;;;;;5097608;28;45706;-68
2023/12/30 10:26:25;;;;;;;3.73;2.90;;;17.40;68.50;;;;;;5061721;28;43371;-72
2023/12/30 10:28:55;;;;;;;2.40;2.20;;;17.40;68.50;;;;;;5058514;28;44750;-72
2023/12/30 10:31:23;;;;;;;2.60;2.40;;;17.40;68.60;;;;;;5054315;28;43352;-72
2023/12/30 10:33:52;;;;;;;2.80;2.50;;;17.40;68.80;;;;;;5060178;28;44363;-72
2023/12/30 10:36:22;;;;;;;2.67;2.57;;;17.30;68.80;;;;;;5051519;28;43450;-72
2023/12/30 10:38:50;;;;;;;2.80;2.60;;;17.30;68.70;;;;;;5057675;28;43425;-72
2023/12/30 10:41:18;;;;;;;2.70;2.50;;;17.30;68.70;;;;;;5058696;28;43968;-72
2023/12/30 10:43:46;;;;;;;2.30;2.20;;;17.30;68.70;;;;;;5061428;28;43934;-72
2023/12/30 10:46:16;;;;;;;2.93;2.30;;;17.30;68.80;;;;;;5055029;28;43941;-72
2023/12/30 10:48:48;;;;;;;2.70;2.50;;;17.30;68.90;;;;;;5050157;28;43988;-71
2023/12/30 10:51:16;;;;;;;3.20;2.70;;;17.30;69.00;;;;;;5059296;28;43684;-71
2023/12/30 10:53:46;;;;;;;2.80;2.50;;;17.20;69.00;;;;;;5058502;28;43684;-72
2023/12/30 10:56:19;;;;;;;2.90;2.17;;;17.20;69.70;;;;;;5057571;28;43497;-72
2023/12/30 10:58:50;;;;;;;2.63;2.47;;;17.30;69.00;;;;;;5057939;28;43486;-72
2023/12/30 11:01:21;;;;;;;2.23;2.07;;;17.20;69.00;;;;;;5056856;28;43419;-72
2023/12/30 11:03:50;;;;;;;2.37;2.20;;;17.30;69.10;;;;;;5059987;28;43618;-72
2023/12/30 11:06:21;;;;;;;5.47;2.23;;;17.20;69.00;;;;;;5055968;28;43368;-72
2023/12/30 11:08:52;;;;;;;2.40;2.20;;;17.20;69.80;;;;;;5060518;28;43417;-72
2023/12/30 11:11:21;;;;;;;2.50;2.40;;;17.30;69.30;;;;;;5060198;28;43865;-72
2023/12/30 11:13:49;;;;;;;3.73;2.80;;;17.20;69.20;;;;;;5052316;28;43606;-72
2023/12/30 11:16:17;;;;;;;2.77;2.20;;;17.30;69.00;;;;;;5058916;28;43509;-71
2023/12/30 11:18:48;;;;;;;2.33;2.13;;;17.50;68.80;;;;;;5050375;28;44112;-71
2023/12/30 11:21:33;;;;;;;2.57;2.47;;;17.50;68.40;;;;;;5063639;28;43518;-72
2023/12/30 11:24:02;;;;;;;2.23;2.00;;;17.50;68.40;;;;;;5061882;28;45384;-71
2023/12/30 11:26:30;;;;;;;4.53;2.60;;;17.50;68.70;;;;;;5054957;28;44829;-72
2023/12/30 11:28:59;;;;;;;6.93;2.27;;;17.40;68.90;;;;;;5059577;28;43421;-72
2023/12/30 11:31:31;;;;;;;7.47;2.53;;;17.40;68.90;;;;;;5057031;28;43458;-72
2023/12/30 11:34:01;;;;;;;2.33;2.20;;;17.40;68.90;;;;;;5058733;28;43672;-72
2023/12/30 11:36:29;;;;;;;2.17;2.00;;;17.40;69.10;;;;;;5064690;28;43516;-72
2023/12/30 11:38:58;;;;;;;3.73;2.03;;;17.40;69.30;;;;;;5052995;28;43498;-71
2023/12/30 11:41:27;;;;;;;3.87;2.47;;;17.30;69.40;;;;;;5052316;28;43391;-71
2023/12/30 11:43:55;;;;;;;5.27;2.33;;;17.30;69.40;;;;;;5059633;28;43988;-71
2023/12/30 11:46:23;;;;;;;3.73;2.10;;;17.30;69.30;;;;;;5050427;28;43424;-71
2023/12/30 11:48:51;;;;;;;2.50;2.30;;;17.30;69.40;;;;;;5060471;28;43519;-71
2023/12/30 11:51:21;;;;;;;5.40;2.40;;;17.30;69.50;;;;;;5060682;28;43580;-71
2023/12/30 11:53:49;;;;;;;5.13;2.30;;;17.30;69.60;;;;;;5056987;28;44025;-71
2023/12/30 11:56:19;;;;;;;3.90;2.27;;;17.30;69.60;;;;;;5055980;28;43987;-71
2023/12/30 11:58:47;;;;;;;5.60;2.27;;;17.30;69.70;;;;;;5064300;28;43538;-72
2023/12/30 12:01:15;;;;;;;4.53;2.30;;;17.30;69.80;;;;;;5057845;28;43407;-73
2023/12/30 12:03:43;;;;;;;2.23;2.03;;;17.40;69.50;;;;;;5052138;28;45731;-72
2023/12/30 12:06:11;;;;;;;3.10;2.47;;;17.50;69.30;;;;;;5059193;28;43454;-72
2023/12/30 12:08:41;;;;;;;5.20;2.30;;;17.50;68.90;;;;;;5050356;28;43465;-72
2023/12/30 12:11:11;;;;;;;2.43;2.20;;;17.50;69.00;;;;;;5060407;28;43514;-73
2023/12/30 12:13:40;;;;;;;2.83;2.10;;;17.50;69.10;;;;;;5054271;28;43652;-72
2023/12/30 12:16:08;;;;;;;2.50;2.37;;;17.50;69.30;;;;;;5055905;28;43368;-72
2023/12/30 12:18:37;;;;;;;2.57;1.90;;;17.50;69.30;;;;;;5062639;28;44173;-72
2023/12/30 12:21:12;;;;;;;2.13;2.03;;;17.50;69.30;;;;;;5056857;27;43377;-72
2023/12/30 12:23:42;;;;;;;2.10;2.00;;;17.50;69.50;;;;;;5053233;28;44130;-72
2023/12/30 12:26:10;;;;;;;2.67;2.03;;;17.40;69.60;;;;;;5055932;28;43387;-72
2023/12/30 12:28:40;;;;;;;3.67;2.37;;;17.40;69.70;;;;;;5055085;28;43989;-72
2023/12/30 12:31:08;;;;;;;2.37;2.27;;;17.40;69.80;;;;;;5049475;28;43889;-71
2023/12/30 12:33:37;;;;;;;3.00;1.90;;;17.40;69.70;;;;;;5053143;28;44128;-72
2023/12/30 12:36:05;;;;;;;2.20;2.00;;;17.40;69.80;;;;;;5056507;28;44063;-71
2023/12/30 12:38:33;;;;;;;2.77;2.00;;;17.40;69.90;;;;;;5049091;28;43836;-72
2023/12/30 12:41:03;;;;;;;2.30;2.13;;;17.40;70.00;;;;;;5060490;28;43410;-72
2023/12/30 12:43:33;;;;;;;2.37;1.97;;;17.40;70.10;;;;;;5059550;28;43596;-72
2023/12/30 12:46:02;;;;;;;3.60;2.17;;;17.40;70.20;;;;;;5066841;28;43422;-70
2023/12/30 12:48:33;;;;;;;1.80;1.70;;;17.40;70.10;;;;;;5078919;28;43467;-70
2023/12/30 12:51:01;;;;;;;1.90;1.80;;;17.40;70.10;;;;;;5083967;28;43430;-70
2023/12/30 12:53:29;;;;;;;2.20;1.60;;;17.40;70.20;;;;;;5081775;28;43598;-69
2023/12/30 12:55:57;;;;;;;1.70;1.60;;;17.40;70.30;;;;;;5083696;28;43391;-70